Time;durP1;ratioP1;P1;durP2;ratioP2;P2;SDS_P1;SDS_P2;PMS_P1;PMS_P2;Temp;Humidity;BMP_temperature;BMP_pressure;BME280_temperature;BME280_humidity;BME280_pressure;Samples;Min_cycle;Max_cycle;Signal;HPM_P1;HPM_P2
2022/01/06 00:01:22;;;;;;;62.70;40.20;;;;;;;3.92;73.75;98614.06;130362;1267;108821;-77
2022/01/06 00:04:28;;;;;;;39.00;24.00;;;;;;;3.88;73.82;98615.50;130375;1267;108626;-80
2022/01/06 00:07:33;;;;;;;28.50;20.20;;;;;;;3.86;73.91;98615.14;130348;1268;109226;-78
2022/01/06 00:10:38;;;;;;;13.70;8.60;;;;;;;3.85;73.98;98608.04;130372;1268;108856;-80
2022/01/06 00:13:54;;;;;;;15.60;9.20;;;;;;;3.82;73.98;98608.73;130319;1268;108826;-78
2022/01/06 00:17:16;;;;;;;39.40;25.80;;;;;;;3.78;74.10;98608.92;130368;1268;108896;-79
2022/01/06 00:23:44;;;;;;;23.10;14.90;;;;;;;3.86;74.28;98609.55;130346;1268;108739;-80
2022/01/06 00:26:50;;;;;;;19.30;11.60;;;;;;;3.88;74.26;98607.57;130289;1268;108808;-80
2022/01/06 00:29:57;;;;;;;27.30;18.10;;;;;;;3.89;74.21;98605.49;130317;1268;108925;-81
2022/01/06 00:33:02;;;;;;;11.00;5.90;;;;;;;3.88;74.33;98604.08;130331;1268;109307;-81
2022/01/06 00:36:08;;;;;;;28.50;17.10;;;;;;;3.82;74.31;98603.55;130456;1268;107959;-80
2022/01/06 00:39:13;;;;;;;17.50;10.20;;;;;;;3.75;74.38;98601.14;130455;1268;107863;-81
2022/01/06 00:42:19;;;;;;;9.20;6.10;;;;;;;3.75;74.55;98595.66;130395;1268;108701;-79
2022/01/06 00:45:26;;;;;;;9.00;5.00;;;;;;;3.76;74.45;98597.33;130529;1268;108806;-80
2022/01/06 00:48:32;;;;;;;11.10;6.30;;;;;;;3.76;74.58;98595.77;130382;1268;108684;-78
2022/01/06 00:51:37;;;;;;;7.40;4.40;;;;;;;3.81;74.79;98595.11;130356;1267;108833;-79
2022/01/06 00:54:43;;;;;;;21.70;10.80;;;;;;;3.88;74.64;98604.07;130309;1268;108956;-80
2022/01/06 00:57:48;;;;;;;106.70;36.30;;;;;;;3.94;74.49;98610.71;130412;1267;107570;-79
2022/01/06 01:00:53;;;;;;;170.00;39.10;;;;;;;3.96;74.47;98612.10;130294;1268;109579;-80
2022/01/06 01:03:59;;;;;;;95.30;31.30;;;;;;;3.98;74.41;98617.33;130307;1268;108962;-79
2022/01/06 01:07:05;;;;;;;43.00;16.90;;;;;;;4.00;74.41;98613.08;130298;1268;108568;-80
2022/01/06 01:10:11;;;;;;;42.70;19.50;;;;;;;4.02;74.42;98614.48;130293;1267;107613;-79
2022/01/06 01:13:26;;;;;;;47.30;26.90;;;;;;;4.03;74.31;98619.70;130363;1266;107519;-79
2022/01/06 01:16:32;;;;;;;41.80;22.20;;;;;;;3.97;74.40;98621.92;130358;1268;107714;-78
2022/01/06 01:19:38;;;;;;;72.90;36.30;;;;;;;3.92;74.44;98624.92;130322;1267;108828;-78
2022/01/06 01:22:43;;;;;;;67.30;33.90;;;;;;;3.90;74.40;98630.41;130372;1267;108868;-77
2022/01/06 01:25:50;;;;;;;17.10;8.50;;;;;;;3.92;74.56;98630.98;130167;1267;108851;-75
2022/01/06 01:28:55;;;;;;;62.30;34.60;;;;;;;3.98;74.57;98633.71;130231;1267;108889;-76
2022/01/06 01:32:01;;;;;;;52.40;29.90;;;;;;;4.01;74.49;98631.66;130294;1268;108942;-78
2022/01/06 01:35:09;;;;;;;13.70;7.50;;;;;;;4.04;74.34;98630.63;130328;1268;108795;-80
2022/01/06 01:38:14;;;;;;;51.90;26.90;;;;;;;4.07;74.48;98629.17;130363;1268;108811;-78
2022/01/06 01:41:20;;;;;;;37.70;21.70;;;;;;;4.07;74.37;98625.58;130328;1268;108458;-79
2022/01/06 01:44:25;;;;;;;89.80;50.60;;;;;;;4.08;74.44;98626.05;130297;1267;108766;-79
2022/01/06 01:47:38;;;;;;;81.50;43.20;;;;;;;4.06;74.45;98624.80;130320;1268;108666;-80
2022/01/06 01:50:44;;;;;;;55.50;30.60;;;;;;;3.99;74.37;98627.16;130343;1268;108796;-78
2022/01/06 01:53:49;;;;;;;90.10;44.50;;;;;;;3.93;74.48;98630.86;130275;1268;107699;-77
2022/01/06 01:56:54;;;;;;;40.30;19.50;;;;;;;3.90;74.65;98638.19;130272;1268;108901;-77
2022/01/06 02:00:00;;;;;;;19.20;9.40;;;;;;;3.91;74.58;98643.13;130308;1268;107102;-77
2022/01/06 02:03:06;;;;;;;22.70;13.50;;;;;;;3.93;74.56;98638.91;130292;1268;107684;-76
2022/01/06 02:06:11;;;;;;;15.90;9.50;;;;;;;3.97;74.64;98642.48;130293;1268;109145;-77
2022/01/06 02:09:17;;;;;;;36.40;21.50;;;;;;;4.01;74.52;98635.52;130344;1268;107736;-80
2022/01/06 02:12:28;;;;;;;29.80;16.90;;;;;;;4.04;74.56;98638.75;130339;1267;109685;-80
2022/01/06 02:15:34;;;;;;;38.50;22.80;;;;;;;4.04;74.59;98638.22;130374;1267;109034;-79
2022/01/06 02:18:39;;;;;;;15.90;9.60;;;;;;;4.02;74.63;98634.43;130345;1268;108845;-79
2022/01/06 02:21:45;;;;;;;23.40;14.00;;;;;;;3.99;74.67;98635.08;130355;1268;109157;-80
2022/01/06 02:24:50;;;;;;;18.40;9.90;;;;;;;3.96;74.79;98636.73;130390;1268;109000;-80
2022/01/06 02:27:57;;;;;;;28.10;13.90;;;;;;;3.93;74.79;98636.23;130563;1268;108843;-80
2022/01/06 02:31:03;;;;;;;17.30;9.10;;;;;;;3.98;74.84;98638.27;130346;1268;108962;-78
2022/01/06 02:34:09;;;;;;;29.60;17.20;;;;;;;4.03;74.75;98635.01;130300;1267;108603;-79
2022/01/06 02:37:15;;;;;;;25.20;12.90;;;;;;;4.11;74.89;98635.45;130287;1267;108895;-78
2022/01/06 02:40:26;;;;;;;43.10;20.80;;;;;;;4.14;74.50;98630.79;130332;1268;108852;-78
2022/01/06 02:43:31;;;;;;;13.30;6.10;;;;;;;4.10;74.68;98627.92;130328;1267;109631;-77
2022/01/06 02:46:39;;;;;;;49.80;26.60;;;;;;;4.08;74.61;98622.39;130308;1268;109070;-76
2022/01/06 02:49:45;;;;;;;36.60;15.90;;;;;;;4.01;74.61;98622.88;130352;1267;108651;-77
2022/01/06 02:52:50;;;;;;;25.40;17.10;;;;;;;3.92;74.59;98627.56;130368;1268;108621;-76
2022/01/06 02:55:56;;;;;;;6.70;4.50;;;;;;;3.86;74.74;98628.49;130313;1268;108749;-76
2022/01/06 02:59:01;;;;;;;5.60;3.40;;;;;;;3.83;74.74;98632.19;130295;1268;109031;-77
2022/01/06 03:02:06;;;;;;;7.20;3.10;;;;;;;3.85;74.83;98634.98;130315;1268;107050;-76
2022/01/06 03:05:13;;;;;;;4.50;2.80;;;;;;;3.91;74.89;98637.90;130325;1268;108076;-76
2022/01/06 03:08:22;;;;;;;7.60;6.00;;;;;;;3.99;74.75;98649.83;130321;1268;108945;-79
2022/01/06 03:11:29;;;;;;;8.90;6.80;;;;;;;4.02;74.61;98647.35;130239;1268;108650;-76
2022/01/06 03:14:34;;;;;;;6.10;3.70;;;;;;;4.07;74.63;98652.53;130319;1267;108604;-79
2022/01/06 03:17:42;;;;;;;21.20;14.30;;;;;;;4.06;74.81;98651.70;130390;1267;108926;-79
2022/01/06 03:20:47;;;;;;;43.90;28.00;;;;;;;4.01;74.82;98656.45;130353;1268;107267;-77
2022/01/06 03:23:53;;;;;;;18.50;11.40;;;;;;;3.90;74.95;98668.30;130325;1268;108735;-77
2022/01/06 03:26:58;;;;;;;15.30;8.40;;;;;;;3.87;75.31;98674.25;130337;1268;108990;-77
2022/01/06 03:30:04;;;;;;;18.10;11.90;;;;;;;3.86;75.40;98680.67;130344;1268;108952;-79
2022/01/06 03:33:09;;;;;;;12.70;8.60;;;;;;;3.87;75.73;98688.46;130315;1268;108759;-79
2022/01/06 03:36:15;;;;;;;6.80;5.00;;;;;;;3.91;75.68;98691.23;130285;1268;108703;-79
2022/01/06 03:39:20;;;;;;;12.50;8.40;;;;;;;3.96;75.86;98695.52;130299;1268;109270;-77
2022/01/06 03:42:25;;;;;;;16.50;11.70;;;;;;;4.00;75.82;98694.27;130326;1268;108880;-78
2022/01/06 03:45:32;;;;;;;12.70;8.90;;;;;;;3.97;75.96;98698.02;130354;1267;108796;-79
2022/01/06 03:48:38;;;;;;;9.10;6.40;;;;;;;3.92;76.21;98704.31;130328;1268;108616;-79
2022/01/06 03:51:43;;;;;;;11.20;7.20;;;;;;;3.88;76.38;98703.30;130311;1268;108639;-78
2022/01/06 03:54:48;;;;;;;10.80;7.40;;;;;;;3.88;76.23;98705.75;130346;1268;108677;-77
2022/01/06 03:57:54;;;;;;;7.30;4.00;;;;;;;3.93;76.28;98703.73;130367;1267;108677;-75
2022/01/06 04:00:59;;;;;;;5.30;4.10;;;;;;;3.95;76.07;98706.68;130343;1267;108868;-75
2022/01/06 04:04:05;;;;;;;6.70;3.70;;;;;;;3.98;76.19;98704.25;130294;1268;108673;-77
2022/01/06 04:07:10;;;;;;;5.90;4.10;;;;;;;3.96;76.13;98708.15;130260;1268;108839;-78
2022/01/06 04:10:15;;;;;;;5.40;3.50;;;;;;;3.91;76.23;98713.37;130346;1268;108630;-78
2022/01/06 04:13:21;;;;;;;7.40;4.40;;;;;;;3.82;76.31;98711.23;130344;1268;108792;-78
2022/01/06 04:16:27;;;;;;;5.40;3.70;;;;;;;3.79;76.50;98712.44;130183;1268;108995;-78
2022/01/06 04:19:33;;;;;;;6.00;3.50;;;;;;;3.78;76.31;98709.71;130193;1267;106829;-77
2022/01/06 04:22:39;;;;;;;7.10;3.70;;;;;;;3.79;76.48;98707.36;130438;1267;108574;-76
2022/01/06 04:25:45;;;;;;;6.20;3.80;;;;;;;3.80;76.35;98705.80;130269;1268;108770;-81
2022/01/06 04:28:50;;;;;;;6.70;4.10;;;;;;;3.75;76.26;98707.15;130293;1267;109060;-79
2022/01/06 04:31:55;;;;;;;7.70;4.10;;;;;;;3.71;76.39;98706.66;130319;1268;109003;-78
2022/01/06 04:35:02;;;;;;;4.50;3.70;;;;;;;3.65;76.27;98713.61;130352;1268;108816;-78
2022/01/06 04:38:07;;;;;;;6.70;4.00;;;;;;;3.53;76.47;98716.80;130354;1267;108754;-80
2022/01/06 04:41:12;;;;;;;5.20;3.80;;;;;;;3.47;76.41;98720.18;130446;1268;108921;-80
2022/01/06 04:44:18;;;;;;;5.70;3.00;;;;;;;3.48;76.54;98728.23;130332;1268;108614;-79
2022/01/06 04:47:23;;;;;;;4.90;3.20;;;;;;;3.53;76.57;98736.54;130257;1268;108716;-81
2022/01/06 04:50:29;;;;;;;4.40;3.00;;;;;;;3.53;76.56;98739.98;130342;1267;108675;-80
2022/01/06 04:53:34;;;;;;;4.80;3.20;;;;;;;3.53;76.48;98748.83;130338;1268;107322;-80
2022/01/06 04:56:39;;;;;;;5.20;3.40;;;;;;;3.51;76.51;98750.78;130392;1267;108730;-81
2022/01/06 04:59:45;;;;;;;5.70;3.20;;;;;;;3.51;76.43;98759.77;130441;1268;108957;-80
2022/01/06 05:02:50;;;;;;;4.90;3.10;;;;;;;3.51;76.47;98763.02;130453;1267;108678;-80
2022/01/06 05:05:56;;;;;;;4.60;2.90;;;;;;;3.55;76.39;98761.09;130344;1268;108832;-78
2022/01/06 05:09:02;;;;;;;8.00;5.10;;;;;;;3.58;76.29;98760.00;130365;1268;108795;-79
2022/01/06 05:12:08;;;;;;;6.70;4.80;;;;;;;3.61;76.11;98768.15;130267;1268;108721;-80
2022/01/06 05:15:15;;;;;;;4.70;3.70;;;;;;;3.66;76.18;98770.83;130330;1267;109113;-79
2022/01/06 05:18:20;;;;;;;12.40;7.50;;;;;;;3.69;76.40;98772.28;130379;1268;108807;-77
2022/01/06 05:21:30;;;;;;;18.30;9.70;;;;;;;3.67;76.03;98772.29;130319;1267;108681;-80
2022/01/06 05:24:37;;;;;;;74.70;33.40;;;;;;;3.56;76.05;98781.95;130352;1267;108904;-79
2022/01/06 05:27:42;;;;;;;7.50;4.70;;;;;;;3.41;76.37;98780.91;130372;1268;108867;-77
2022/01/06 05:30:48;;;;;;;5.40;4.30;;;;;;;3.38;76.45;98780.88;130344;1268;107714;-77
2022/01/06 05:33:53;;;;;;;17.30;12.00;;;;;;;3.39;76.39;98783.91;130370;1267;108826;-77
2022/01/06 05:36:59;;;;;;;11.40;7.50;;;;;;;3.40;76.20;98785.05;130325;1268;108778;-78
2022/01/06 05:40:06;;;;;;;69.60;38.40;;;;;;;3.34;76.32;98793.66;130295;1267;109597;-76
2022/01/06 05:43:11;;;;;;;102.00;52.00;;;;;;;3.28;76.47;98794.59;130324;1268;109161;-76
2022/01/06 05:46:17;;;;;;;70.00;32.90;;;;;;;3.29;76.51;98799.73;130376;1267;108822;-75
2022/01/06 05:49:22;;;;;;;239.60;101.80;;;;;;;3.30;76.55;98802.86;130340;1267;108630;-79
2022/01/06 05:52:28;;;;;;;30.20;14.60;;;;;;;3.32;76.72;98810.41;130345;1268;108751;-79
2022/01/06 05:55:33;;;;;;;157.50;62.30;;;;;;;3.37;76.63;98809.04;130363;1267;109047;-79
2022/01/06 05:58:40;;;;;;;141.60;64.30;;;;;;;3.46;76.57;98815.09;130358;1268;108790;-78
2022/01/06 06:01:46;;;;;;;41.60;21.30;;;;;;;3.56;76.50;98827.16;130460;1267;109025;-77
2022/01/06 06:04:52;;;;;;;49.80;19.20;;;;;;;3.62;76.41;98827.67;130421;1268;109136;-79
2022/01/06 06:07:58;;;;;;;31.40;18.40;;;;;;;3.66;76.35;98837.11;130320;1268;108517;-75
2022/01/06 06:11:04;;;;;;;39.80;26.20;;;;;;;3.66;76.27;98845.58;130594;1268;108739;-78
2022/01/06 06:14:10;;;;;;;39.90;24.40;;;;;;;3.67;76.43;98852.67;130453;1268;108358;-78
2022/01/06 06:17:15;;;;;;;30.40;16.40;;;;;;;3.68;76.31;98853.34;130394;1268;108734;-80
2022/01/06 06:20:21;;;;;;;31.00;17.70;;;;;;;3.64;76.11;98855.77;130359;1268;108659;-80
2022/01/06 06:23:26;;;;;;;25.90;16.80;;;;;;;3.65;76.07;98859.56;130295;1268;108839;-80
2022/01/06 06:26:32;;;;;;;41.30;15.10;;;;;;;3.68;76.12;98863.07;130415;1268;108800;-80
2022/01/06 06:29:37;;;;;;;128.40;46.60;;;;;;;3.71;75.84;98862.72;130516;1268;108711;-80
2022/01/06 06:32:42;;;;;;;307.80;99.10;;;;;;;3.67;75.74;98865.48;130332;1267;108814;-77
2022/01/06 06:35:48;;;;;;;171.00;60.10;;;;;;;3.57;75.61;98870.66;130306;1268;108763;-80
2022/01/06 06:38:53;;;;;;;139.50;64.30;;;;;;;3.49;75.63;98880.54;130281;1268;109214;-78
2022/01/06 06:41:59;;;;;;;105.80;54.10;;;;;;;3.41;75.55;98886.71;130434;1268;107714;-79
2022/01/06 06:45:05;;;;;;;31.30;17.00;;;;;;;3.29;75.64;98893.27;130328;1266;108738;-78
2022/01/06 06:48:11;;;;;;;58.90;34.50;;;;;;;3.13;75.63;98891.39;130253;1267;109843;-78
2022/01/06 06:51:17;;;;;;;12.80;9.10;;;;;;;3.05;75.83;98894.52;130440;1266;107416;-76
2022/01/06 06:54:22;;;;;;;7.30;4.90;;;;;;;3.05;75.85;98901.58;130353;1267;108810;-76
2022/01/06 06:57:27;;;;;;;4.90;3.50;;;;;;;3.07;75.75;98907.42;130471;1267;108746;-79
2022/01/06 07:00:33;;;;;;;6.60;2.70;;;;;;;3.10;75.77;98916.08;130454;1268;108803;-78
2022/01/06 07:03:39;;;;;;;4.30;3.10;;;;;;;3.13;75.69;98924.15;130330;1268;108981;-80
2022/01/06 07:06:45;;;;;;;70.00;35.80;;;;;;;3.16;75.38;98925.05;130404;1267;108125;-79
2022/01/06 07:09:51;;;;;;;41.80;22.80;;;;;;;3.10;75.51;98926.62;130387;1268;108470;-78
2022/01/06 07:12:56;;;;;;;5.10;3.30;;;;;;;3.04;75.13;98932.77;130357;1268;108786;-78
2022/01/06 07:16:02;;;;;;;3.90;2.60;;;;;;;2.99;75.42;98939.52;130309;1267;106678;-78
2022/01/06 07:19:07;;;;;;;4.20;2.30;;;;;;;3.01;75.31;98940.27;130422;1267;108779;-76
2022/01/06 07:22:12;;;;;;;3.90;2.50;;;;;;;3.10;75.34;98944.38;130336;1268;108742;-78
2022/01/06 07:25:18;;;;;;;5.20;3.20;;;;;;;3.12;74.69;98948.91;130363;1267;107678;-77
2022/01/06 07:28:23;;;;;;;16.40;11.60;;;;;;;3.13;74.84;98956.03;130395;1267;109011;-77
2022/01/06 07:31:29;;;;;;;5.50;3.30;;;;;;;3.14;74.85;98953.61;130315;1268;108639;-79
2022/01/06 07:34:34;;;;;;;5.90;3.30;;;;;;;3.11;74.78;98958.79;130382;1267;108802;-76
2022/01/06 07:37:40;;;;;;;10.00;6.10;;;;;;;3.01;75.11;98966.20;130394;1267;108881;-76
2022/01/06 07:40:45;;;;;;;7.30;5.20;;;;;;;2.95;74.94;98967.00;130400;1268;107100;-75
2022/01/06 07:43:51;;;;;;;18.90;10.60;;;;;;;2.88;75.03;98966.17;130426;1268;108820;-78
2022/01/06 07:46:59;;;;;;;18.60;8.30;;;;;;;2.83;75.25;98970.64;130558;1268;108998;-80
2022/01/06 07:50:05;;;;;;;15.30;7.90;;;;;;;2.81;75.27;98969.11;130429;1268;108936;-77
2022/01/06 07:53:11;;;;;;;22.60;12.90;;;;;;;2.87;75.35;98974.34;130370;1268;107538;-76
2022/01/06 07:56:16;;;;;;;16.40;8.60;;;;;;;2.86;75.33;98974.06;130451;1267;109295;-78
2022/01/06 07:59:22;;;;;;;8.70;5.30;;;;;;;2.83;75.09;98981.17;130409;1268;110118;-77
2022/01/06 08:02:27;;;;;;;34.60;22.60;;;;;;;2.76;74.98;98987.92;130367;1268;108862;-79
2022/01/06 08:05:32;;;;;;;38.40;22.00;;;;;;;2.71;74.90;98983.80;130335;1268;108633;-79
2022/01/06 08:08:40;;;;;;;10.90;7.10;;;;;;;2.66;74.04;98986.90;130332;1268;108746;-76
2022/01/06 08:11:46;;;;;;;11.10;6.80;;;;;;;2.64;73.91;98992.34;130260;1268;108866;-77
2022/01/06 08:14:51;;;;;;;12.40;6.70;;;;;;;2.73;74.40;98994.17;130264;1268;108897;-79
2022/01/06 08:17:56;;;;;;;18.30;11.90;;;;;;;2.81;74.02;99004.16;130287;1269;109165;-78
2022/01/06 08:21:03;;;;;;;7.10;4.10;;;;;;;2.88;74.12;99006.73;130323;1268;108794;-78
2022/01/06 08:24:08;;;;;;;11.40;6.20;;;;;;;2.85;73.77;99015.23;130402;1268;109743;-82
2022/01/06 08:27:14;;;;;;;6.20;3.60;;;;;;;2.86;73.68;99018.37;130534;1267;109183;-81
2022/01/06 08:30:19;;;;;;;35.00;18.00;;;;;;;2.86;73.82;99026.94;130419;1267;108952;-80
2022/01/06 08:33:25;;;;;;;16.50;8.10;;;;;;;2.85;73.84;99030.73;130331;1268;108891;-80
2022/01/06 08:36:31;;;;;;;8.10;3.90;;;;;;;2.86;73.74;99028.66;130380;1267;108725;-80
2022/01/06 08:39:36;;;;;;;19.60;8.70;;;;;;;2.73;72.48;99036.15;130405;1267;109271;-78
2022/01/06 08:42:42;;;;;;;47.10;18.50;;;;;;;2.70;73.30;99038.86;130337;1267;106843;-79
2022/01/06 08:45:47;;;;;;;66.90;32.60;;;;;;;2.67;72.91;99042.29;130363;1268;109013;-78
2022/01/06 08:48:53;;;;;;;16.20;7.70;;;;;;;2.59;72.79;99049.30;130305;1267;108759;-75
2022/01/06 08:51:58;;;;;;;40.10;19.60;;;;;;;2.50;72.94;99051.64;130437;1268;109160;-75
2022/01/06 08:55:05;;;;;;;9.80;5.10;;;;;;;2.46;72.83;99063.27;130433;1268;108709;-79
2022/01/06 08:58:10;;;;;;;9.30;3.90;;;;;;;2.37;72.95;99068.55;130375;1268;108725;-78
2022/01/06 09:01:16;;;;;;;5.40;2.90;;;;;;;2.33;73.12;99074.66;130312;1268;108881;-79
2022/01/06 09:04:22;;;;;;;90.60;22.00;;;;;;;2.33;73.25;99075.90;130300;1267;108787;-75
2022/01/06 09:07:28;;;;;;;26.80;10.20;;;;;;;2.38;73.07;99084.23;130365;1268;108718;-80
2022/01/06 09:10:35;;;;;;;17.60;10.50;;;;;;;2.35;72.75;99087.63;130361;1268;109198;-78
2022/01/06 09:13:41;;;;;;;5.80;2.80;;;;;;;2.35;72.91;99093.08;130405;1268;108599;-79
2022/01/06 09:16:47;;;;;;;5.30;2.50;;;;;;;2.37;73.17;99095.38;130366;1267;109701;-78
2022/01/06 09:19:52;;;;;;;4.50;2.60;;;;;;;2.41;73.28;99097.34;130515;1268;108896;-76
2022/01/06 09:22:57;;;;;;;5.20;2.40;;;;;;;2.40;73.28;99097.20;130523;1268;108878;-78
2022/01/06 09:26:03;;;;;;;7.00;3.60;;;;;;;2.42;73.36;99100.98;130369;1267;108732;-77
2022/01/06 09:29:09;;;;;;;11.60;6.30;;;;;;;2.42;73.48;99104.23;130371;1267;108874;-77
2022/01/06 09:32:15;;;;;;;18.40;7.70;;;;;;;2.42;73.30;99101.98;130170;1267;109022;-74
2022/01/06 09:35:20;;;;;;;7.70;4.20;;;;;;;2.34;73.68;99105.43;130318;1267;108696;-78
2022/01/06 09:38:26;;;;;;;62.90;30.50;;;;;;;2.33;74.09;99107.11;130321;1268;108768;-78
2022/01/06 09:41:32;;;;;;;54.60;20.80;;;;;;;2.46;74.25;99104.86;130239;1268;108926;-79
2022/01/06 09:44:39;;;;;;;15.50;6.90;;;;;;;2.57;74.05;99109.86;130287;1268;108951;-77
2022/01/06 09:47:45;;;;;;;10.60;7.00;;;;;;;2.56;74.33;99116.26;130379;1268;108752;-77
2022/01/06 09:50:54;;;;;;;6.90;4.00;;;;;;;2.48;74.80;99120.29;130274;1269;107414;-78
2022/01/06 09:54:01;;;;;;;11.40;6.60;;;;;;;2.33;75.02;99127.46;130280;1268;107758;-76
2022/01/06 09:57:07;;;;;;;16.40;10.30;;;;;;;2.26;75.11;99127.84;130448;1268;108971;-81
2022/01/06 10:00:17;;;;;;;13.60;8.20;;;;;;;2.31;75.15;99132.70;130295;1270;108855;-82
2022/01/06 10:03:32;;;;;;;38.90;17.50;;;;;;;2.35;75.15;99136.27;130296;1268;107628;-76
2022/01/06 10:06:37;;;;;;;61.10;28.70;;;;;;;2.45;75.04;99139.30;130344;1271;108648;-77
2022/01/06 10:09:43;;;;;;;17.80;8.40;;;;;;;2.55;75.06;99141.75;130241;1268;108754;-83
2022/01/06 10:13:00;;;;;;;29.80;14.10;;;;;;;2.59;75.05;99151.61;130439;1268;108854;-82
2022/01/06 10:16:16;;;;;;;234.20;65.50;;;;;;;2.60;75.30;99153.34;130404;1268;108692;-81
2022/01/06 10:19:21;;;;;;;23.40;10.50;;;;;;;2.50;75.41;99152.95;130505;1268;108870;-83
2022/01/06 10:22:27;;;;;;;12.70;6.20;;;;;;;2.51;75.45;99157.88;130797;1268;108674;-82
2022/01/06 10:25:39;;;;;;;8.90;4.70;;;;;;;2.44;75.57;99161.30;130705;1269;108855;-81
2022/01/06 10:28:44;;;;;;;9.10;5.30;;;;;;;2.45;75.86;99166.15;130446;1268;110012;-82
2022/01/06 10:31:50;;;;;;;9.70;6.00;;;;;;;2.46;75.99;99165.94;130389;1269;108766;-82
2022/01/06 10:35:02;;;;;;;53.20;19.40;;;;;;;2.54;75.97;99175.77;130394;1269;108828;-81
2022/01/06 10:38:07;;;;;;;37.80;18.80;;;;;;;2.60;76.00;99174.68;130695;1268;108695;-81
2022/01/06 10:41:16;;;;;;;142.60;54.70;;;;;;;2.57;75.87;99178.52;130528;1267;108791;-82
2022/01/06 10:44:21;;;;;;;61.70;26.50;;;;;;;2.55;76.01;99178.63;130524;1268;108936;-79
2022/01/06 10:47:34;;;;;;;78.00;31.90;;;;;;;2.50;75.96;99177.27;130534;1268;108731;-80
2022/01/06 10:50:41;;;;;;;167.80;68.80;;;;;;;2.49;76.01;99175.33;130627;1268;108668;-82
2022/01/06 10:53:52;;;;;;;42.50;19.40;;;;;;;2.42;76.43;99176.60;130716;1268;108744;-82
2022/01/06 10:57:06;;;;;;;47.40;20.70;;;;;;;2.32;76.69;99179.67;130758;1268;108742;-82
2022/01/06 11:00:16;;;;;;;7.50;4.90;;;;;;;2.30;77.33;99189.15;130868;1267;107937;-83
2022/01/06 11:03:23;;;;;;;5.50;2.90;;;;;;;1.79;79.42;99226.44;130707;1267;107704;-80
2022/01/06 11:06:30;;;;;;;3.40;2.60;;;;;;;1.32;79.75;99233.45;130507;1267;108765;-80
2022/01/06 11:09:42;;;;;;;16.80;8.90;;;;;;;1.01;80.07;99237.55;130837;1268;108972;-82
2022/01/06 11:12:47;;;;;;;7.30;3.90;;;;;;;0.92;79.95;99244.06;131627;1268;106785;-82
2022/01/06 11:15:54;;;;;;;6.20;3.50;;;;;;;0.91;80.40;99246.72;130970;1268;108835;-84
2022/01/06 11:19:00;;;;;;;5.00;3.50;;;;;;;0.93;80.51;99255.02;130476;1267;108852;-83
2022/01/06 11:22:07;;;;;;;7.00;4.50;;;;;;;0.86;80.00;99264.99;130794;1268;108676;-82
2022/01/06 11:25:13;;;;;;;17.50;11.00;;;;;;;0.83;79.56;99270.11;130635;1268;108819;-82
2022/01/06 11:28:19;;;;;;;22.10;11.20;;;;;;;0.78;79.24;99279.05;130845;1268;107666;-84
2022/01/06 11:31:27;;;;;;;9.90;5.60;;;;;;;0.62;79.18;99291.05;130647;1268;108788;-79
2022/01/06 11:34:39;;;;;;;28.70;16.60;;;;;;;0.52;79.96;99292.03;130582;1267;108230;-82
2022/01/06 11:37:47;;;;;;;9.80;4.80;;;;;;;0.54;80.04;99297.28;130512;1267;108760;-82
2022/01/06 11:41:07;;;;;;;20.20;9.90;;;;;;;0.52;79.14;99302.98;130673;1267;108747;-82
2022/01/06 11:44:20;;;;;;;19.10;10.80;;;;;;;0.44;79.23;99312.58;130628;1268;108789;-83
2022/01/06 11:47:33;;;;;;;17.00;8.90;;;;;;;0.36;79.42;99314.00;130543;1268;108637;-79
2022/01/06 11:50:42;;;;;;;8.80;3.70;;;;;;;0.35;79.62;99327.64;130605;1267;108543;-80
2022/01/06 11:53:47;;;;;;;76.10;34.10;;;;;;;0.34;79.59;99332.83;130520;1268;108605;-81
2022/01/06 11:56:53;;;;;;;38.10;14.80;;;;;;;0.42;79.06;99334.54;130500;1268;108686;-82
2022/01/06 12:00:01;;;;;;;29.90;15.40;;;;;;;0.42;78.54;99339.61;130506;1268;107087;-82
2022/01/06 12:03:10;;;;;;;30.30;12.40;;;;;;;0.54;78.30;99340.32;130408;1268;108775;-82
2022/01/06 12:06:27;;;;;;;24.40;10.80;;;;;;;0.66;77.89;99345.59;130560;1267;106761;-82
2022/01/06 12:09:33;;;;;;;17.40;9.70;;;;;;;0.81;77.68;99347.83;130548;1268;108703;-82
2022/01/06 12:12:40;;;;;;;29.40;14.10;;;;;;;0.85;77.29;99351.20;130310;1268;108798;-85
2022/01/06 12:15:51;;;;;;;13.30;6.80;;;;;;;0.97;76.97;99359.77;130301;1268;107166;-82
2022/01/06 12:18:59;;;;;;;12.70;7.10;;;;;;;1.04;76.63;99359.60;130598;1268;108782;-82
2022/01/06 12:22:11;;;;;;;15.30;7.60;;;;;;;1.12;76.06;99368.98;130514;1268;107750;-82
2022/01/06 12:25:15;;;;;;;;;;;;;;;1.14;74.52;99377.75;130510;1268;108835;-82
2022/01/06 12:28:21;;;;;;;7.50;5.00;;;;;;;1.04;73.22;99376.75;130481;1268;108848;-85
2022/01/06 12:31:28;;;;;;;6.30;2.80;;;;;;;1.04;74.09;99382.54;130511;1268;106827;-81
2022/01/06 12:34:33;;;;;;;20.40;9.80;;;;;;;1.09;72.95;99383.36;130543;1268;108948;-83
2022/01/06 12:37:39;;;;;;;8.40;4.00;;;;;;;1.05;70.94;99385.95;130519;1268;108765;-82
2022/01/06 12:40:45;;;;;;;6.10;3.40;;;;;;;1.01;72.62;99390.16;130425;1268;108730;-83
2022/01/06 12:43:52;;;;;;;20.30;13.50;;;;;;;0.89;71.44;99397.15;130421;1269;108599;-82
2022/01/06 12:46:58;;;;;;;10.40;4.90;;;;;;;0.78;72.18;99399.48;130374;1268;108580;-82
2022/01/06 12:50:03;;;;;;;8.40;4.30;;;;;;;0.76;72.11;99407.34;130432;1268;107432;-82
2022/01/06 12:53:09;;;;;;;15.00;7.80;;;;;;;0.72;71.78;99412.18;130385;1268;108975;-82
2022/01/06 12:56:25;;;;;;;31.90;14.20;;;;;;;0.72;72.02;99417.27;130357;1268;108671;-82
2022/01/06 12:59:34;;;;;;;38.50;18.80;;;;;;;0.81;72.30;99419.27;130338;1270;108788;-83
2022/01/06 13:02:40;;;;;;;57.30;24.60;;;;;;;0.83;72.11;99422.23;130563;1268;107033;-83
2022/01/06 13:05:46;;;;;;;25.90;13.40;;;;;;;0.76;70.56;99431.65;130670;1268;108735;-82
2022/01/06 13:08:56;;;;;;;26.90;12.90;;;;;;;0.62;70.94;99433.55;130631;1268;109035;-84
2022/01/06 13:12:03;;;;;;;18.80;10.50;;;;;;;0.58;71.07;99444.16;130525;1268;107805;-81
2022/01/06 13:15:12;;;;;;;11.00;5.00;;;;;;;0.53;71.23;99448.34;130549;1268;108534;-83
2022/01/06 13:18:27;;;;;;;8.10;4.10;;;;;;;0.46;70.97;99452.52;130315;1268;109253;-83
2022/01/06 13:21:35;;;;;;;9.60;4.50;;;;;;;0.39;71.60;99458.64;130422;1268;108799;-83
2022/01/06 13:24:41;;;;;;;12.20;5.40;;;;;;;0.39;71.54;99468.21;130399;1268;108903;-78
2022/01/06 13:27:56;;;;;;;8.70;3.60;;;;;;;0.49;72.06;99472.98;130311;1268;108708;-82
2022/01/06 13:31:03;;;;;;;24.80;11.50;;;;;;;0.55;70.97;99480.45;130336;1268;108701;-82
2022/01/06 13:34:08;;;;;;;5.30;2.90;;;;;;;0.53;69.87;99488.95;130359;1268;108854;-83
2022/01/06 13:37:16;;;;;;;8.90;4.20;;;;;;;0.42;69.58;99493.75;130238;1270;107680;-84
2022/01/06 13:40:22;;;;;;;15.90;6.50;;;;;;;0.41;70.78;99496.45;130400;1268;108757;-84
2022/01/06 13:43:30;;;;;;;10.40;5.10;;;;;;;0.39;69.31;99510.77;130391;1270;108712;-82
2022/01/06 13:46:50;;;;;;;15.80;7.00;;;;;;;0.24;68.95;99510.04;130390;1268;108666;-86
2022/01/06 13:53:42;;;;;;;50.30;20.50;;;;;;;0.10;70.53;99521.86;130762;1268;108780;-86
2022/01/06 13:56:47;;;;;;;8.50;4.40;;;;;;;0.11;69.97;99533.52;130740;1270;107878;-87
2022/01/06 13:59:56;;;;;;;21.30;10.40;;;;;;;-0.03;68.92;99532.16;130396;1268;107678;-86
2022/01/06 14:03:03;;;;;;;4.10;2.10;;;;;;;-0.18;68.95;99541.77;130413;1268;108720;-83
2022/01/06 14:06:13;;;;;;;62.70;33.20;;;;;;;-0.31;69.57;99551.71;130691;1271;108941;-84
2022/01/06 14:09:20;;;;;;;5.80;3.20;;;;;;;-0.39;70.20;99557.98;130450;1269;107710;-81
2022/01/06 14:12:26;;;;;;;7.90;2.70;;;;;;;-0.45;71.04;99572.66;130431;1268;108869;-79
2022/01/06 14:15:31;;;;;;;13.20;4.10;;;;;;;-0.50;73.45;99579.30;130262;1271;108744;-79
2022/01/06 14:18:37;;;;;;;40.20;15.90;;;;;;;-0.55;74.95;99584.35;130351;1271;109116;-80
2022/01/06 14:21:43;;;;;;;11.30;5.30;;;;;;;-0.53;74.01;99592.45;130332;1270;108751;-81
2022/01/06 14:24:49;;;;;;;13.50;5.30;;;;;;;-0.58;75.96;99601.12;130376;1268;108929;-80